Time;durP1;ratioP1;P1;durP2;ratioP2;P2;SDS_P1;SDS_P2;PMS_P1;PMS_P2;Temp;Humidity;BMP_temperature;BMP_pressure;BME280_temperature;BME280_humidity;BME280_pressure;Samples;Min_cycle;Max_cycle;Signal;HPM_P1;HPM_P2
2022/10/14 00:00:19;;;;;;;65.25;35.08;;;12.40;99.90;;;;;;5063602;28;20048;-68
2022/10/14 00:02:45;;;;;;;60.83;33.30;;;12.40;99.90;;;;;;5081161;28;20037;-68
2022/10/14 00:05:11;;;;;;;72.28;35.88;;;12.40;99.90;;;;;;5057822;28;20452;-68
2022/10/14 00:07:37;;;;;;;63.85;35.33;;;12.40;99.90;;;;;;5086108;28;20040;-68
2022/10/14 00:10:04;;;;;;;75.40;35.78;;;12.30;99.90;;;;;;5063030;28;20037;-68
2022/10/14 00:12:31;;;;;;;72.25;36.75;;;12.40;99.90;;;;;;5085576;28;20052;-68
2022/10/14 00:14:58;;;;;;;67.80;33.80;;;12.30;99.90;;;;;;5064765;28;20055;-68
2022/10/14 00:17:23;;;;;;;66.13;34.38;;;12.40;99.90;;;;;;5061525;28;20045;-68
2022/10/14 00:19:49;;;;;;;67.63;35.08;;;12.30;99.90;;;;;;5057945;28;20078;-68
2022/10/14 00:22:15;;;;;;;59.70;33.78;;;12.40;99.90;;;;;;5065086;28;20051;-68
2022/10/14 00:24:41;;;;;;;64.45;35.13;;;12.30;99.90;;;;;;5061936;28;20045;-68
2022/10/14 00:27:06;;;;;;;66.53;35.50;;;12.30;99.90;;;;;;5081598;28;20041;-68
2022/10/14 00:29:32;;;;;;;63.90;33.38;;;12.30;99.90;;;;;;5067712;28;20106;-69
2022/10/14 00:31:58;;;;;;;73.15;34.33;;;12.20;99.90;;;;;;5057531;28;20056;-67
2022/10/14 00:34:23;;;;;;;68.93;34.17;;;12.30;99.90;;;;;;5062023;28;20049;-67
2022/10/14 00:36:49;;;;;;;59.60;31.85;;;12.30;99.90;;;;;;5065776;28;20048;-67
2022/10/14 00:39:15;;;;;;;67.85;31.98;;;12.30;99.90;;;;;;5068478;28;20044;-67
2022/10/14 00:41:41;;;;;;;63.13;32.58;;;12.10;99.90;;;;;;5072626;28;20045;-67
2022/10/14 00:44:09;;;;;;;63.00;31.88;;;12.20;99.90;;;;;;5061630;28;20048;-67
2022/10/14 00:46:43;;;;;;;53.30;30.08;;;12.10;99.90;;;;;;5060942;28;20373;-67
2022/10/14 00:49:30;;;;;;;61.25;32.22;;;12.10;99.90;;;;;;5076797;28;20071;-68
2022/10/14 00:52:07;;;;;;;53.70;29.67;;;12.20;99.90;;;;;;5085669;28;20060;-67
2022/10/14 00:54:43;;;;;;;56.95;30.80;;;12.20;99.90;;;;;;5062642;28;20048;-67
2022/10/14 00:57:09;;;;;;;47.78;27.65;;;12.10;99.90;;;;;;5031660;28;20044;-67
2022/10/14 00:59:36;;;;;;;57.13;29.13;;;12.20;99.90;;;;;;5063017;28;20049;-67
2022/10/14 01:02:02;;;;;;;58.53;29.60;;;12.10;99.90;;;;;;5067399;28;20048;-67
2022/10/14 01:04:27;;;;;;;55.15;29.73;;;12.00;99.90;;;;;;5057244;28;20075;-67
2022/10/14 01:07:18;;;;;;;57.92;30.45;;;12.10;99.90;;;;;;5061139;28;20517;-67
2022/10/14 01:09:56;;;;;;;54.05;28.73;;;12.00;99.90;;;;;;5057005;28;20155;-68
2022/10/14 01:12:32;;;;;;;62.10;29.67;;;12.20;99.90;;;;;;5059581;28;20045;-67
2022/10/14 01:15:23;;;;;;;54.38;30.15;;;12.10;99.90;;;;;;5072877;28;20516;-67
2022/10/14 01:18:10;;;;;;;60.05;29.48;;;12.10;99.90;;;;;;5081610;28;20075;-67
2022/10/14 01:20:41;;;;;;;64.43;30.27;;;12.10;99.90;;;;;;5073113;28;20127;-67
2022/10/14 01:23:13;;;;;;;64.95;30.02;;;12.10;99.90;;;;;;5063692;28;20044;-67
2022/10/14 01:26:11;;;;;;;82.55;30.27;;;12.10;99.90;;;;;;5074082;28;20086;-67
2022/10/14 01:28:53;;;;;;;47.72;26.58;;;12.00;99.90;;;;;;4983062;28;20047;-68
2022/10/14 01:31:22;;;;;;;89.00;27.33;;;12.00;99.90;;;;;;4967940;28;20058;-67
2022/10/14 01:33:53;;;;;;;67.33;26.40;;;12.00;99.90;;;;;;4987231;28;20045;-67
2022/10/14 01:36:47;;;;;;;393.58;35.13;;;12.00;99.90;;;;;;4984874;28;20075;-67
2022/10/14 01:39:24;;;;;;;194.35;27.10;;;11.90;99.90;;;;;;4993059;28;20054;-67
2022/10/14 01:42:04;;;;;;;124.00;26.58;;;11.90;99.90;;;;;;4989584;28;20097;-67
2022/10/14 01:44:32;;;;;;;234.65;29.40;;;11.80;99.90;;;;;;4967568;28;20061;-67
2022/10/14 01:47:00;;;;;;;90.80;24.00;;;11.80;99.90;;;;;;4984339;28;20159;-67
2022/10/14 01:49:36;;;;;;;212.80;25.17;;;11.80;99.90;;;;;;4976889;28;20135;-67
2022/10/14 01:52:11;;;;;;;198.05;26.15;;;11.80;99.90;;;;;;4965513;28;20065;-67
2022/10/14 01:54:40;;;;;;;86.90;21.63;;;11.80;99.90;;;;;;4972345;28;20085;-67
2022/10/14 01:57:10;;;;;;;271.95;30.55;;;11.80;99.90;;;;;;4978089;28;20066;-67
2022/10/14 01:59:55;;;;;;;266.08;27.50;;;11.80;99.90;;;;;;4983607;28;20059;-67
2022/10/14 02:02:22;;;;;;;233.70;24.75;;;11.70;99.90;;;;;;4963056;28;20089;-68
2022/10/14 02:04:48;;;;;;;149.43;22.50;;;11.60;99.90;;;;;;5040424;28;20060;-67
2022/10/14 02:07:38;;;;;;;63.30;19.05;;;11.60;99.90;;;;;;5053042;28;20029;-67
2022/10/14 02:10:31;;;;;;;154.90;22.27;;;11.60;99.90;;;;;;5058765;28;20053;-68
2022/10/14 02:13:30;;;;;;;155.93;22.17;;;11.60;99.90;;;;;;5069010;28;20048;-67
2022/10/14 02:16:19;;;;;;;157.80;23.40;;;11.60;99.90;;;;;;5063643;28;20040;-68
2022/10/14 02:19:01;;;;;;;155.55;20.67;;;11.60;99.90;;;;;;5062703;28;20461;-68
2022/10/14 02:21:42;;;;;;;119.47;18.05;;;11.60;99.90;;;;;;5063952;28;20433;-68
2022/10/14 02:24:39;;;;;;;74.22;15.70;;;11.50;99.90;;;;;;5029349;28;20072;-68
2022/10/14 02:27:12;;;;;;;114.53;17.67;;;11.50;99.90;;;;;;5044793;28;20075;-68
2022/10/14 02:29:41;;;;;;;101.82;16.42;;;11.50;99.90;;;;;;5045636;28;20056;-67
2022/10/14 02:32:08;;;;;;;131.30;16.70;;;11.50;99.90;;;;;;5044084;28;20045;-67
2022/10/14 02:34:36;;;;;;;56.88;15.60;;;11.50;99.90;;;;;;5065681;28;20040;-67
2022/10/14 02:37:03;;;;;;;98.97;15.75;;;11.50;99.90;;;;;;5049778;28;20069;-67
2022/10/14 02:39:40;;;;;;;74.90;15.60;;;11.50;99.90;;;;;;5049924;28;20072;-67
2022/10/14 02:42:06;;;;;;;85.47;15.32;;;11.50;99.90;;;;;;5046497;28;20059;-67
2022/10/14 02:44:32;;;;;;;32.67;13.85;;;11.40;99.90;;;;;;5048530;28;20049;-68
2022/10/14 02:46:58;;;;;;;35.42;14.50;;;11.60;99.90;;;;;;5064728;28;20041;-68
2022/10/14 02:49:23;;;;;;;69.03;16.38;;;11.60;99.90;;;;;;5049671;28;20485;-68
2022/10/14 02:51:49;;;;;;;175.63;18.52;;;11.60;99.90;;;;;;5046722;28;20055;-68
2022/10/14 02:54:15;;;;;;;94.47;18.17;;;11.60;99.90;;;;;;5049941;28;20044;-67
2022/10/14 02:56:40;;;;;;;271.73;24.10;;;11.50;99.90;;;;;;5048792;28;20053;-67
2022/10/14 02:59:06;;;;;;;187.70;21.67;;;11.50;99.90;;;;;;5048971;28;20040;-67
2022/10/14 03:01:32;;;;;;;138.82;20.35;;;11.50;99.90;;;;;;5066058;28;20044;-67
2022/10/14 03:03:58;;;;;;;172.52;21.38;;;11.50;99.90;;;;;;5064560;28;20051;-68
2022/10/14 03:06:24;;;;;;;149.35;21.23;;;11.40;99.90;;;;;;5063913;28;20041;-67
2022/10/14 03:08:49;;;;;;;74.97;17.90;;;11.40;99.90;;;;;;5049632;28;20041;-67
2022/10/14 03:11:15;;;;;;;74.97;18.95;;;11.40;99.90;;;;;;5065673;28;20098;-68
2022/10/14 03:13:41;;;;;;;223.82;22.38;;;11.50;99.90;;;;;;5067174;28;20073;-67
2022/10/14 03:16:09;;;;;;;189.90;21.02;;;11.30;99.90;;;;;;5044962;28;20053;-67
2022/10/14 03:18:35;;;;;;;172.23;19.65;;;11.20;99.90;;;;;;5064448;28;20132;-68
2022/10/14 03:21:00;;;;;;;82.80;17.95;;;11.20;99.90;;;;;;5067560;28;20397;-67
2022/10/14 03:23:26;;;;;;;145.95;17.75;;;11.20;99.90;;;;;;5049241;28;20076;-67
2022/10/14 03:25:52;;;;;;;120.85;15.20;;;11.10;99.90;;;;;;5050331;28;20040;-67
2022/10/14 03:28:17;;;;;;;223.25;20.50;;;11.00;99.90;;;;;;5049010;28;20059;-67
2022/10/14 03:30:43;;;;;;;140.35;15.43;;;10.90;99.90;;;;;;5047316;28;20045;-67
2022/10/14 03:33:09;;;;;;;57.85;13.80;;;10.90;99.90;;;;;;5067196;28;20047;-67
2022/10/14 03:35:34;;;;;;;112.70;16.60;;;11.00;99.90;;;;;;5047182;28;20501;-67
2022/10/14 03:38:02;;;;;;;130.00;16.98;;;11.00;99.90;;;;;;5063533;28;20500;-67
2022/10/14 03:40:29;;;;;;;173.27;20.35;;;10.90;99.90;;;;;;5061831;28;20046;-67
2022/10/14 03:42:58;;;;;;;153.35;17.45;;;11.00;99.90;;;;;;5067226;28;20073;-67
2022/10/14 03:45:24;;;;;;;184.82;19.45;;;11.00;99.90;;;;;;5063001;28;20068;-67
2022/10/14 03:47:49;;;;;;;79.28;15.65;;;10.90;99.90;;;;;;5044024;28;20488;-67
2022/10/14 03:50:15;;;;;;;96.78;17.27;;;10.90;99.90;;;;;;5066453;28;20048;-67
2022/10/14 03:52:41;;;;;;;56.90;14.60;;;10.90;99.90;;;;;;5048619;28;20045;-67
2022/10/14 03:55:08;;;;;;;60.45;16.63;;;11.00;99.90;;;;;;5063279;28;20044;-67
2022/10/14 03:57:33;;;;;;;84.18;17.45;;;11.00;99.90;;;;;;5048484;28;20053;-67
2022/10/14 03:59:59;;;;;;;85.53;16.33;;;11.10;99.90;;;;;;5048367;28;20060;-68
2022/10/14 04:02:25;;;;;;;65.60;16.08;;;11.00;99.90;;;;;;5065733;28;20048;-68
2022/10/14 04:04:50;;;;;;;60.35;15.38;;;11.00;99.90;;;;;;5032360;28;20104;-68
2022/10/14 04:07:16;;;;;;;47.88;14.48;;;11.00;99.90;;;;;;5044239;28;20049;-68
2022/10/14 04:09:42;;;;;;;85.03;16.83;;;11.10;99.90;;;;;;5048109;28;20517;-68
2022/10/14 04:12:07;;;;;;;67.13;16.05;;;11.10;99.90;;;;;;5045327;28;20040;-68
2022/10/14 04:14:33;;;;;;;74.50;17.20;;;11.10;99.90;;;;;;5066844;28;20048;-68
2022/10/14 04:17:01;;;;;;;37.38;15.20;;;11.10;99.90;;;;;;5064748;28;20139;-67
2022/10/14 04:19:27;;;;;;;49.08;16.08;;;11.10;99.90;;;;;;5047977;28;20056;-68
2022/10/14 04:21:53;;;;;;;62.10;15.70;;;11.10;99.90;;;;;;5066093;28;20037;-67
2022/10/14 04:24:18;;;;;;;55.85;17.17;;;11.20;99.90;;;;;;5047798;28;20064;-67
2022/10/14 04:26:44;;;;;;;35.35;15.60;;;11.20;99.90;;;;;;5065441;28;20068;-67
2022/10/14 04:29:10;;;;;;;52.92;15.57;;;11.30;99.90;;;;;;5064877;28;20041;-67
2022/10/14 04:31:35;;;;;;;48.03;16.13;;;11.20;99.90;;;;;;5064310;28;20091;-67
2022/10/14 04:34:01;;;;;;;58.25;18.92;;;11.20;99.90;;;;;;5042650;28;20672;-68
2022/10/14 04:36:26;;;;;;;49.58;18.92;;;11.40;99.90;;;;;;5062932;28;20084;-67
2022/10/14 04:38:52;;;;;;;68.72;20.90;;;11.30;99.90;;;;;;5042475;28;20052;-67
2022/10/14 04:41:18;;;;;;;53.83;20.20;;;11.30;99.90;;;;;;5046670;28;20072;-67
2022/10/14 04:43:46;;;;;;;59.50;19.35;;;11.30;99.90;;;;;;5065654;28;20061;-67
2022/10/14 04:46:12;;;;;;;67.00;20.38;;;11.30;99.90;;;;;;5043104;28;20243;-68
2022/10/14 04:48:38;;;;;;;53.97;18.30;;;11.30;99.90;;;;;;5047270;28;20048;-68
2022/10/14 04:51:03;;;;;;;49.50;19.55;;;11.30;99.90;;;;;;5065411;28;20040;-68
2022/10/14 04:53:29;;;;;;;58.58;21.52;;;11.30;99.90;;;;;;5047220;28;20053;-68
2022/10/14 04:55:55;;;;;;;63.75;22.92;;;11.30;99.90;;;;;;5065387;28;20041;-68
2022/10/14 04:58:20;;;;;;;59.33;21.65;;;11.30;99.90;;;;;;5062546;28;20172;-68
2022/10/14 05:00:46;;;;;;;60.25;22.52;;;11.40;99.90;;;;;;5060831;28;20045;-68
2022/10/14 05:03:12;;;;;;;64.00;23.20;;;11.40;99.90;;;;;;5047350;28;20127;-68
2022/10/14 05:05:37;;;;;;;64.47;22.38;;;11.50;99.90;;;;;;5019400;28;20081;-68
2022/10/14 05:08:03;;;;;;;57.38;23.63;;;11.40;99.90;;;;;;5047669;28;20063;-68
2022/10/14 05:10:29;;;;;;;60.65;23.27;;;11.40;99.90;;;;;;5064370;28;20053;-68
2022/10/14 05:12:55;;;;;;;57.78;21.65;;;11.40;99.90;;;;;;5063645;28;20041;-67
2022/10/14 05:15:21;;;;;;;54.60;21.20;;;11.50;99.90;;;;;;5049898;28;20301;-67
2022/10/14 05:17:47;;;;;;;55.50;19.50;;;11.40;99.90;;;;;;5034223;28;20064;-68
2022/10/14 05:20:12;;;;;;;58.95;20.38;;;11.50;99.90;;;;;;5050386;28;20056;-69
2022/10/14 05:22:38;;;;;;;52.65;20.73;;;11.50;99.90;;;;;;5061526;28;20056;-68
2022/10/14 05:25:04;;;;;;;55.08;20.58;;;11.50;99.90;;;;;;5075450;28;20048;-68
2022/10/14 05:27:30;;;;;;;53.22;20.92;;;11.50;99.90;;;;;;5049621;28;20057;-68
2022/10/14 05:29:56;;;;;;;51.90;20.58;;;11.50;99.90;;;;;;5060551;28;20044;-68
2022/10/14 05:32:21;;;;;;;47.65;19.38;;;11.60;99.90;;;;;;5048763;28;20079;-68
2022/10/14 05:34:47;;;;;;;44.95;19.58;;;11.60;99.90;;;;;;5057337;28;20459;-68
2022/10/14 05:37:13;;;;;;;42.97;21.02;;;11.60;99.90;;;;;;5049912;28;20760;-68
2022/10/14 05:39:39;;;;;;;43.13;20.35;;;11.60;99.90;;;;;;5060197;28;20089;-68
2022/10/14 05:42:04;;;;;;;44.83;20.88;;;11.60;99.90;;;;;;5034017;28;20055;-68
2022/10/14 05:44:30;;;;;;;36.85;18.02;;;11.50;99.90;;;;;;5060691;28;20044;-68
2022/10/14 05:46:58;;;;;;;42.03;19.17;;;11.50;99.90;;;;;;5065452;28;20048;-68
2022/10/14 05:49:24;;;;;;;42.65;19.40;;;11.60;99.90;;;;;;5043239;28;20044;-68
2022/10/14 05:51:50;;;;;;;45.17;20.23;;;11.50;99.90;;;;;;5051090;28;20079;-68
2022/10/14 05:54:15;;;;;;;45.58;20.92;;;11.50;99.90;;;;;;5060528;28;20032;-68
2022/10/14 05:56:41;;;;;;;45.00;21.65;;;11.50;99.90;;;;;;5050293;28;20048;-68
2022/10/14 05:59:09;;;;;;;40.92;20.90;;;11.60;99.90;;;;;;5045689;28;20041;-67
2022/10/14 06:01:35;;;;;;;42.85;21.48;;;11.50;99.90;;;;;;5067533;28;20057;-68
2022/10/14 06:04:01;;;;;;;45.38;22.38;;;11.50;99.90;;;;;;5061550;28;20449;-68
2022/10/14 06:06:27;;;;;;;48.83;23.63;;;11.50;99.90;;;;;;5031130;28;20062;-68
2022/10/14 06:08:54;;;;;;;46.13;22.40;;;11.50;99.90;;;;;;5055093;28;20052;-68
2022/10/14 06:11:20;;;;;;;42.28;22.50;;;11.60;99.90;;;;;;5020470;28;20041;-68
2022/10/14 06:13:46;;;;;;;43.30;23.02;;;11.60;99.90;;;;;;5070196;28;20045;-68
2022/10/14 06:16:11;;;;;;;42.00;24.80;;;11.70;99.90;;;;;;5043639;28;20048;-69
2022/10/14 06:18:37;;;;;;;45.90;24.45;;;11.50;99.90;;;;;;5054669;28;20060;-68
2022/10/14 06:21:05;;;;;;;44.20;23.73;;;11.60;99.90;;;;;;5079938;28;20096;-68
2022/10/14 06:23:31;;;;;;;41.58;23.17;;;11.60;99.90;;;;;;5071937;28;20055;-68
2022/10/14 06:25:57;;;;;;;41.25;23.20;;;11.60;99.90;;;;;;5065846;28;20064;-66
2022/10/14 06:28:22;;;;;;;42.17;22.65;;;11.50;99.90;;;;;;5033919;28;20099;-67
2022/10/14 06:30:53;;;;;;;35.42;21.08;;;11.60;99.90;;;;;;5062635;28;20037;-67
2022/10/14 06:33:19;;;;;;;38.80;23.63;;;11.60;99.90;;;;;;5055149;28;20488;-66
2022/10/14 06:35:46;;;;;;;44.35;23.52;;;11.60;99.90;;;;;;5064754;28;20044;-66
2022/10/14 06:38:12;;;;;;;39.00;24.25;;;11.60;99.90;;;;;;5058957;28;20052;-66
2022/10/14 06:40:38;;;;;;;35.42;21.67;;;11.60;99.90;;;;;;5075918;28;20067;-66
2022/10/14 06:43:04;;;;;;;40.30;22.20;;;11.80;99.90;;;;;;5029314;28;20604;-67
2022/10/14 06:45:30;;;;;;;41.80;24.15;;;11.70;99.90;;;;;;5056577;28;20079;-67
2022/10/14 06:47:56;;;;;;;37.83;22.85;;;11.80;99.90;;;;;;5049868;28;20049;-66
2022/10/14 06:50:22;;;;;;;39.75;23.83;;;11.70;99.90;;;;;;5046806;28;20041;-66
2022/10/14 06:52:48;;;;;;;39.42;22.65;;;11.70;99.90;;;;;;5048150;28;20579;-66
2022/10/14 06:55:14;;;;;;;40.58;23.95;;;11.70;99.90;;;;;;5045703;28;20048;-67
2022/10/14 06:57:40;;;;;;;39.50;23.13;;;11.70;99.90;;;;;;5034825;28;20060;-68
2022/10/14 07:00:07;;;;;;;39.78;23.38;;;11.70;99.90;;;;;;5061075;28;20523;-66
2022/10/14 07:02:32;;;;;;;39.47;22.83;;;11.70;99.90;;;;;;5048344;28;20110;-66
2022/10/14 07:04:58;;;;;;;39.72;22.05;;;11.80;99.90;;;;;;5060573;28;20040;-66
2022/10/14 07:07:24;;;;;;;34.10;21.13;;;11.80;99.90;;;;;;5033934;28;20129;-66
2022/10/14 07:09:50;;;;;;;33.97;19.73;;;11.80;99.90;;;;;;5060775;28;20084;-65
2022/10/14 07:12:16;;;;;;;34.90;20.00;;;11.80;99.90;;;;;;5068785;28;20113;-65
2022/10/14 07:14:41;;;;;;;35.40;19.95;;;11.80;99.90;;;;;;5061424;28;20506;-65
2022/10/14 07:17:08;;;;;;;33.42;18.88;;;11.90;99.90;;;;;;5050485;28;20048;-66
2022/10/14 07:19:34;;;;;;;39.45;20.92;;;11.90;99.90;;;;;;5055980;28;20469;-65
2022/10/14 07:21:59;;;;;;;29.20;18.40;;;11.90;99.90;;;;;;5051968;28;20045;-65
2022/10/14 07:24:25;;;;;;;34.55;18.20;;;11.80;99.90;;;;;;5062514;28;20052;-66
2022/10/14 07:26:51;;;;;;;32.25;19.10;;;11.90;99.90;;;;;;5053320;28;20060;-66
2022/10/14 07:29:17;;;;;;;34.47;18.52;;;12.00;99.90;;;;;;5065634;28;20043;-65
2022/10/14 07:31:43;;;;;;;32.55;19.35;;;12.00;99.90;;;;;;5054700;28;20033;-66
2022/10/14 07:34:09;;;;;;;32.30;19.75;;;12.00;99.90;;;;;;5063574;28;20344;-66
2022/10/14 07:36:35;;;;;;;31.83;19.38;;;12.10;99.90;;;;;;5054325;28;20396;-66
2022/10/14 07:39:01;;;;;;;30.27;18.17;;;12.10;99.90;;;;;;5083268;28;20370;-66
2022/10/14 07:41:27;;;;;;;31.83;19.67;;;12.20;99.90;;;;;;5059490;28;20100;-66
2022/10/14 07:44:01;;;;;;;31.95;19.85;;;12.20;99.90;;;;;;5045467;28;20056;-65
2022/10/14 07:46:30;;;;;;;31.08;18.88;;;12.20;99.90;;;;;;5080774;28;20048;-66
2022/10/14 07:49:00;;;;;;;35.05;21.00;;;12.30;99.90;;;;;;5053759;28;20044;-66
2022/10/14 07:51:27;;;;;;;;;;;12.30;99.90;;;;;;5083072;28;20041;-66
2022/10/14 07:53:53;;;;;;;33.40;20.23;;;12.20;99.90;;;;;;5071212;28;19927;-65
2022/10/14 07:56:21;;;;;;;36.35;21.13;;;12.30;99.90;;;;;;5062237;28;20036;-66
2022/10/14 07:58:47;;;;;;;35.67;19.02;;;12.40;99.90;;;;;;5054964;28;20419;-66
2022/10/14 08:01:14;;;;;;;33.53;20.95;;;12.40;99.90;;;;;;5062952;28;20048;-66
2022/10/14 08:03:42;;;;;;;33.17;20.58;;;12.40;99.90;;;;;;5067474;28;20064;-66
2022/10/14 08:06:08;;;;;;;34.75;20.08;;;12.40;99.90;;;;;;5041922;28;20056;-65
2022/10/14 08:08:34;;;;;;;32.92;18.52;;;12.40;99.90;;;;;;5050316;28;20052;-65
2022/10/14 08:11:05;;;;;;;37.88;21.65;;;12.50;99.90;;;;;;5057383;28;20066;-65
2022/10/14 08:13:31;;;;;;;32.13;19.17;;;12.40;99.90;;;;;;5065403;28;20074;-65
2022/10/14 08:15:56;;;;;;;33.97;19.92;;;12.50;99.90;;;;;;5058083;28;20108;-65
2022/10/14 08:18:22;;;;;;;33.50;20.85;;;12.50;99.90;;;;;;5049029;28;20142;-66
2022/10/14 08:20:48;;;;;;;33.08;20.83;;;12.60;99.90;;;;;;5035995;28;20133;-65
2022/10/14 08:23:14;;;;;;;36.85;22.05;;;12.60;99.90;;;;;;5032892;28;20116;-65
2022/10/14 08:25:40;;;;;;;34.65;21.38;;;12.70;99.90;;;;;;5038700;28;20422;-65
2022/10/14 08:28:05;;;;;;;35.40;22.13;;;12.70;99.90;;;;;;5045920;28;20087;-65
2022/10/14 08:30:31;;;;;;;34.28;21.35;;;12.70;99.90;;;;;;5050206;28;20095;-65
2022/10/14 08:32:58;;;;;;;33.30;21.27;;;12.80;99.90;;;;;;5014931;28;20045;-65
2022/10/14 08:35:24;;;;;;;29.02;18.80;;;12.70;99.90;;;;;;5036199;28;20450;-65
2022/10/14 08:38:00;;;;;;;35.08;20.27;;;12.70;99.90;;;;;;5030652;28;20360;-65
2022/10/14 08:40:35;;;;;;;31.77;19.33;;;12.80;99.90;;;;;;5041077;28;20052;-65
2022/10/14 08:43:12;;;;;;;32.10;19.83;;;12.90;99.90;;;;;;5030966;28;20405;-65
2022/10/14 08:45:46;;;;;;;32.90;21.00;;;12.80;99.90;;;;;;5030017;28;20085;-65
2022/10/14 08:48:20;;;;;;;33.28;20.08;;;12.90;99.90;;;;;;5029635;28;20118;-66
2022/10/14 08:51:15;;;;;;;35.63;20.90;;;12.80;99.90;;;;;;5020491;28;20049;-67
2022/10/14 08:53:59;;;;;;;35.83;20.95;;;12.90;99.90;;;;;;5042775;28;20056;-66
2022/10/14 08:56:24;;;;;;;40.35;22.85;;;12.90;99.90;;;;;;5055733;28;20130;-66
2022/10/14 08:58:53;;;;;;;33.78;20.15;;;12.80;99.90;;;;;;5030954;28;20162;-66
2022/10/14 09:01:28;;;;;;;33.00;19.92;;;12.90;99.90;;;;;;5036541;28;20051;-66
2022/10/14 09:04:01;;;;;;;38.17;22.23;;;12.90;99.90;;;;;;5028356;28;20162;-67
2022/10/14 09:06:29;;;;;;;38.08;22.05;;;12.80;99.90;;;;;;5021924;28;20055;-67
2022/10/14 09:09:33;;;;;;;34.88;20.45;;;12.90;99.90;;;;;;5045319;28;20463;-67
2022/10/14 09:12:03;;;;;;;35.75;20.58;;;13.00;99.90;;;;;;5041536;28;20041;-67
2022/10/14 09:14:32;;;;;;;;;;;13.00;99.90;;;;;;5038261;28;20049;-67
2022/10/14 09:17:11;;;;;;;34.25;19.73;;;13.00;99.90;;;;;;5039024;28;19921;-67
2022/10/14 09:19:45;;;;;;;36.45;22.90;;;13.10;99.90;;;;;;5022785;28;20092;-71
2022/10/14 09:22:14;;;;;;;41.65;22.88;;;13.20;99.90;;;;;;5010611;28;20054;-67
2022/10/14 09:24:41;;;;;;;39.20;22.20;;;13.10;99.90;;;;;;5054264;28;20126;-70
2022/10/14 09:27:16;;;;;;;41.90;23.67;;;13.10;99.90;;;;;;5025644;28;20422;-66
2022/10/14 09:29:46;;;;;;;42.45;23.83;;;13.20;99.90;;;;;;5037783;28;20047;-72
2022/10/14 09:32:19;;;;;;;42.25;22.75;;;13.20;99.90;;;;;;5045188;28;20068;-72
2022/10/14 09:34:49;;;;;;;43.70;23.58;;;13.30;99.90;;;;;;5046896;28;20497;-71
2022/10/14 09:37:30;;;;;;;50.60;24.70;;;13.20;99.90;;;;;;5028360;28;20089;-71
2022/10/14 09:40:15;;;;;;;46.85;24.30;;;13.20;99.90;;;;;;5038508;28;20049;-71
2022/10/14 09:43:06;;;;;;;49.15;26.17;;;13.20;99.90;;;;;;5012362;28;20059;-71
2022/10/14 09:45:49;;;;;;;47.13;23.77;;;13.20;99.90;;;;;;5030113;28;20385;-71
2022/10/14 09:48:21;;;;;;;50.85;26.45;;;13.20;99.90;;;;;;5034549;28;20067;-71
2022/10/14 09:50:53;;;;;;;50.83;26.20;;;13.20;99.90;;;;;;5037089;28;20401;-71
2022/10/14 09:53:36;;;;;;;47.83;25.25;;;13.20;99.90;;;;;;5017475;28;20285;-71
2022/10/14 09:56:04;;;;;;;48.53;25.65;;;13.30;99.90;;;;;;5037205;28;20033;-71
2022/10/14 09:58:44;;;;;;;43.70;23.35;;;13.30;99.90;;;;;;5028118;28;20053;-71
2022/10/14 10:01:21;;;;;;;51.55;26.15;;;13.20;99.90;;;;;;5039073;28;20118;-71
2022/10/14 10:03:49;;;;;;;53.65;26.77;;;13.20;99.90;;;;;;5033007;28;20041;-71
2022/10/14 10:06:18;;;;;;;47.03;23.77;;;13.30;99.90;;;;;;5025220;28;20061;-71
2022/10/14 10:08:52;;;;;;;45.17;23.35;;;13.20;99.90;;;;;;5030665;28;20048;-72
2022/10/14 10:11:38;;;;;;;50.03;24.27;;;13.20;99.90;;;;;;5036588;28;20097;-72
2022/10/14 10:14:21;;;;;;;54.10;26.52;;;13.30;99.90;;;;;;5009365;28;20123;-71
2022/10/14 10:16:48;;;;;;;56.15;26.60;;;13.20;99.90;;;;;;5041824;28;20056;-71
2022/10/14 10:19:31;;;;;;;51.40;25.35;;;13.20;99.90;;;;;;5042060;28;20040;-71
2022/10/14 10:22:18;;;;;;;55.28;26.50;;;13.20;99.90;;;;;;5055427;28;20059;-71
2022/10/14 10:24:45;;;;;;;48.13;24.70;;;13.30;99.90;;;;;;5036808;28;20469;-71
2022/10/14 10:27:24;;;;;;;52.78;27.35;;;13.40;99.90;;;;;;5042734;28;20033;-71
2022/10/14 10:29:50;;;;;;;49.73;24.63;;;13.30;99.90;;;;;;5052151;28;20071;-70
2022/10/14 10:32:49;;;;;;;52.25;26.17;;;13.30;99.90;;;;;;5029826;28;20044;-67
2022/10/14 10:35:21;;;;;;;47.28;24.38;;;13.30;99.90;;;;;;5072877;28;20029;-67
2022/10/14 10:38:19;;;;;;;50.38;24.63;;;13.30;99.90;;;;;;5054366;28;20097;-64
2022/10/14 10:40:57;;;;;;;54.60;27.02;;;13.30;99.90;;;;;;5042173;28;20410;-65
2022/10/14 10:43:31;;;;;;;50.20;25.67;;;13.30;99.90;;;;;;5048027;28;20116;-66
2022/10/14 10:46:22;;;;;;;50.00;25.35;;;13.30;99.90;;;;;;5040424;28;20041;-65
2022/10/14 10:49:15;;;;;;;51.08;24.77;;;13.30;99.90;;;;;;5026009;28;20057;-67
2022/10/14 10:51:47;;;;;;;49.97;25.70;;;13.30;99.90;;;;;;5071073;28;20056;-65
2022/10/14 10:54:31;;;;;;;51.22;25.73;;;13.30;99.90;;;;;;5034661;28;20047;-65
2022/10/14 10:57:02;;;;;;;48.92;24.73;;;13.30;99.90;;;;;;5045113;28;20552;-66
2022/10/14 10:59:58;;;;;;;44.00;23.33;;;13.40;99.90;;;;;;5043519;28;20056;-66
2022/10/14 11:02:26;;;;;;;43.10;21.98;;;13.30;99.90;;;;;;5063674;28;20541;-65
2022/10/14 11:05:11;;;;;;;50.33;25.20;;;13.30;99.90;;;;;;5067235;28;20036;-64
2022/10/14 11:13:49;;;;;;;41.60;21.25;;;13.40;99.90;;;;;;5043170;28;20040;-65
2022/10/14 11:16:27;;;;;;;38.88;20.38;;;13.40;99.90;;;;;;5024893;28;20049;-66
2022/10/14 11:19:05;;;;;;;34.95;20.23;;;13.30;99.90;;;;;;5030520;28;20053;-66
2022/10/14 11:21:54;;;;;;;36.13;19.45;;;13.40;99.90;;;;;;5039318;28;20049;-66
2022/10/14 11:24:28;;;;;;;33.53;19.38;;;13.30;99.90;;;;;;5029253;28;20580;-66
2022/10/14 11:27:05;;;;;;;43.28;22.20;;;13.30;99.90;;;;;;5055050;28;20312;-66
2022/10/14 11:29:53;;;;;;;37.70;19.80;;;13.50;99.90;;;;;;5045906;28;20045;-66
2022/10/14 11:32:32;;;;;;;38.58;21.10;;;13.40;99.90;;;;;;5029369;28;20075;-67
2022/10/14 11:34:57;;;;;;;39.17;19.90;;;13.50;99.90;;;;;;5046504;28;20049;-66
2022/10/14 11:37:37;;;;;;;45.40;22.65;;;13.50;99.90;;;;;;5029483;28;20049;-66
2022/10/14 11:40:28;;;;;;;40.17;22.27;;;13.50;99.90;;;;;;5053372;28;20269;-66
2022/10/14 11:43:02;;;;;;;39.78;22.70;;;13.60;99.90;;;;;;5024405;28;20111;-66
2022/10/14 11:45:56;;;;;;;37.38;20.90;;;13.50;99.90;;;;;;5042820;28;20037;-66
2022/10/14 11:48:32;;;;;;;43.58;22.95;;;13.70;99.90;;;;;;5043287;28;20053;-66
2022/10/14 11:51:23;;;;;;;46.45;24.05;;;13.70;99.90;;;;;;5038089;28;20045;-66
2022/10/14 11:53:55;;;;;;;46.03;24.67;;;13.70;99.90;;;;;;5028693;28;20075;-65
2022/10/14 11:56:33;;;;;;;52.70;27.48;;;13.80;99.90;;;;;;5052370;28;20456;-65
2022/10/14 11:59:09;;;;;;;58.28;30.02;;;13.80;99.90;;;;;;5031009;28;20136;-66
2022/10/14 12:01:41;;;;;;;59.95;30.27;;;13.80;99.90;;;;;;5041127;28;20051;-65
2022/10/14 12:04:27;;;;;;;63.80;32.35;;;13.70;99.90;;;;;;5038311;28;20049;-66
2022/10/14 12:07:17;;;;;;;60.70;30.40;;;13.90;99.90;;;;;;5019836;28;20052;-66
2022/10/14 12:09:48;;;;;;;;;;;13.90;99.90;;;;;;5037289;28;20067;-66
2022/10/14 12:12:17;;;;;;;65.03;33.78;;;13.90;99.90;;;;;;5051775;28;20157;-66
2022/10/14 12:15:06;;;;;;;65.57;33.55;;;13.80;99.90;;;;;;5027604;28;20052;-66
2022/10/14 12:17:43;;;;;;;72.00;36.33;;;14.00;99.90;;;;;;5029729;28;20175;-66
2022/10/14 12:20:22;;;;;;;69.00;34.85;;;13.90;99.90;;;;;;5046591;28;20424;-66
2022/10/14 12:22:50;;;;;;;70.00;34.50;;;14.00;99.90;;;;;;5044759;28;20061;-65
2022/10/14 12:25:19;;;;;;;66.32;35.78;;;14.10;99.90;;;;;;5054554;28;20051;-65
2022/10/14 12:27:45;;;;;;;75.27;37.67;;;14.10;99.90;;;;;;5046382;28;20080;-66
2022/10/14 12:30:50;;;;;;;74.43;37.50;;;14.10;99.90;;;;;;5074634;28;20271;-66
2022/10/14 12:33:16;;;;;;;65.00;34.58;;;14.10;99.90;;;;;;4971142;28;20042;-66
2022/10/14 12:35:51;;;;;;;68.45;36.50;;;14.10;99.90;;;;;;4977172;28;20054;-66
2022/10/14 12:38:18;;;;;;;67.95;36.75;;;14.10;99.90;;;;;;4969507;28;20065;-65
2022/10/14 12:40:44;;;;;;;72.53;36.80;;;14.10;99.90;;;;;;4980214;28;20066;-65
2022/10/14 12:43:22;;;;;;;71.95;35.97;;;14.20;99.90;;;;;;4987340;28;20078;-66
2022/10/14 12:45:54;;;;;;;73.47;38.83;;;14.20;99.90;;;;;;4977263;28;20075;-65
2022/10/14 12:48:22;;;;;;;67.35;37.58;;;14.20;99.90;;;;;;4965666;28;20054;-65
2022/10/14 12:50:52;;;;;;;65.88;37.38;;;14.20;99.90;;;;;;4968053;28;20060;-70